Time;durP1;ratioP1;P1;durP2;ratioP2;P2;SDS_P1;SDS_P2;PMS_P1;PMS_P2;Temp;Humidity;BMP_temperature;BMP_pressure;BME280_temperature;BME280_humidity;BME280_pressure;Samples;Min_cycle;Max_cycle;Signal;HPM_P1;HPM_P2
2023/12/05 00:02:12;;;;;;;1.23;1.23;;;;;;;0.51;100.00;94460.59;4341092;32;20277;-60
2023/12/05 00:04:39;;;;;;;1.30;1.27;;;;;;;0.67;100.00;94469.31;4350551;32;20297;-61
2023/12/05 00:07:05;;;;;;;1.47;1.43;;;;;;;1.06;99.81;94461.94;4347153;32;20194;-60
2023/12/05 00:09:38;;;;;;;1.30;1.30;;;;;;;0.91;99.31;94472.31;4329631;32;20264;-60
2023/12/05 00:12:04;;;;;;;1.60;1.50;;;;;;;0.88;100.00;94462.38;4275485;32;20333;-60
2023/12/05 00:14:32;;;;;;;2.00;1.80;;;;;;;1.14;100.00;94466.66;4290100;32;20189;-60
2023/12/05 00:16:58;;;;;;;1.37;1.37;;;;;;;1.32;98.77;94474.06;4304704;32;20208;-60
2023/12/05 00:19:25;;;;;;;0.97;0.97;;;;;;;0.98;100.00;94452.78;4274087;33;20367;-60
2023/12/05 00:21:52;;;;;;;0.80;0.80;;;;;;;1.23;99.11;94473.00;4306084;32;20181;-60
2023/12/05 00:24:18;;;;;;;1.30;1.30;;;;;;;1.48;98.75;94476.69;4332956;32;20273;-62
2023/12/05 00:26:44;;;;;;;1.10;1.10;;;;;;;1.26;100.00;94469.84;4334905;32;20281;-60
2023/12/05 00:29:10;;;;;;;1.53;1.53;;;;;;;1.37;100.00;94474.06;4347060;32;20191;-60
2023/12/05 00:31:37;;;;;;;1.00;1.00;;;;;;;1.42;99.93;94475.91;4349112;32;20340;-60
2023/12/05 00:34:06;;;;;;;2.20;2.10;;;;;;;1.46;99.46;94510.12;4352467;32;20340;-60
2023/12/05 00:36:32;;;;;;;1.10;1.10;;;;;;;1.40;100.00;94498.91;4326782;32;20281;-60
2023/12/05 00:38:59;;;;;;;2.37;2.13;;;;;;;1.36;100.00;94493.41;4302560;32;20324;-61
2023/12/05 00:41:27;;;;;;;2.60;1.93;;;;;;;1.61;99.72;94510.22;4319497;32;20265;-60
2023/12/05 00:43:53;;;;;;;1.70;1.70;;;;;;;1.33;100.00;94506.97;4346225;32;20270;-60
2023/12/05 00:46:21;;;;;;;2.10;2.00;;;;;;;1.45;100.00;94509.38;4350136;32;20368;-60
2023/12/05 00:48:48;;;;;;;1.30;1.20;;;;;;;1.42;100.00;94519.56;4343287;32;20282;-61
2023/12/05 00:51:15;;;;;;;1.30;1.30;;;;;;;1.58;100.00;94518.56;4360439;32;20277;-60
2023/12/05 00:53:43;;;;;;;1.37;1.27;;;;;;;1.41;100.00;94512.75;4360222;32;20351;-60
2023/12/05 00:56:14;;;;;;;1.50;1.50;;;;;;;1.56;100.00;94518.03;4350213;32;20365;-59
2023/12/05 00:58:42;;;;;;;;;;;;;;;1.52;100.00;94514.34;4359741;32;20422;-60
2023/12/05 01:01:08;;;;;;;;;;;;;;;1.52;100.00;94514.34;4360304;32;20056;-60
2023/12/05 01:03:35;;;;;;;;;;;;;;;1.72;100.00;94524.88;4316613;32;19990;-60
2023/12/05 01:06:01;;;;;;;;;;;;;;;1.64;100.00;94528.78;4305906;32;19982;-60
2023/12/05 01:08:28;;;;;;;;;;;;;;;1.82;100.00;94530.13;4327810;32;19988;-60
2023/12/05 01:10:53;;;;;;;;;;;;;;;1.72;100.00;94540.53;4316722;32;19975;-60
2023/12/05 01:13:18;;;;;;;;;;;;;;;1.82;100.00;94545.03;4318973;32;20045;-61
2023/12/05 01:15:44;;;;;;;;;;;;;;;1.84;100.00;94540.34;4324719;32;19986;-60
2023/12/05 01:18:10;;;;;;;;;;;;;;;1.92;100.00;94545.81;4343845;32;20063;-60
2023/12/05 01:20:37;;;;;;;1.90;1.80;;;;;;;2.00;100.00;94547.16;4324082;32;20039;-60
2023/12/05 01:23:04;;;;;;;1.27;1.27;;;;;;;1.89;100.00;94545.56;4335390;32;20227;-60
2023/12/05 01:25:29;;;;;;;1.80;1.70;;;;;;;2.12;100.00;94539.84;4309865;32;20270;-60
2023/12/05 01:27:56;;;;;;;2.24;2.14;;;;;;;2.09;100.00;94542.97;4305048;32;20308;-61
2023/12/05 01:30:21;;;;;;;1.67;1.57;;;;;;;2.16;100.00;94540.12;4344527;32;20185;-60
2023/12/05 01:32:46;;;;;;;1.17;1.17;;;;;;;2.37;100.00;94557.41;4335577;32;20289;-64
2023/12/05 01:35:12;;;;;;;1.50;1.40;;;;;;;2.19;100.00;94550.06;4329404;32;20204;-60
2023/12/05 01:37:39;;;;;;;2.67;1.40;;;;;;;2.32;100.00;94554.78;4338942;32;20189;-60
2023/12/05 01:40:08;;;;;;;2.77;2.20;;;;;;;2.18;100.00;94554.50;4350497;32;20219;-60
2023/12/05 01:42:36;;;;;;;1.07;1.07;;;;;;;2.28;100.00;94553.75;4346611;32;20272;-60
2023/12/05 01:45:05;;;;;;;1.00;1.00;;;;;;;2.40;100.00;94551.66;4324846;32;20291;-60
2023/12/05 01:47:35;;;;;;;1.33;1.33;;;;;;;2.53;100.00;94552.97;4305606;32;20287;-61
2023/12/05 01:50:01;;;;;;;;;;;;;;;2.50;100.00;94546.41;4316800;32;20301;-61
2023/12/05 01:52:29;;;;;;;0.70;0.70;;;;;;;2.39;100.00;94540.41;4310147;32;20270;-60
2023/12/05 01:54:56;;;;;;;2.60;1.00;;;;;;;2.40;100.00;94535.97;4315235;32;20205;-60
2023/12/05 01:57:24;;;;;;;1.07;1.07;;;;;;;2.41;100.00;94542.75;4311130;32;20285;-60
2023/12/05 01:59:53;;;;;;;1.50;1.50;;;;;;;2.49;100.00;94546.72;4315462;32;20294;-62
2023/12/05 02:02:21;;;;;;;1.37;1.37;;;;;;;2.28;100.00;94538.06;4319854;32;20293;-60
2023/12/05 02:04:48;;;;;;;;;;;;;;;2.38;100.00;94538.06;4320543;32;20282;-60
2023/12/05 02:07:14;;;;;;;;;;;;;;;2.53;100.00;94522.34;4309489;32;19983;-60
2023/12/05 02:09:42;;;;;;;;;;;;;;;2.36;100.00;94519.22;4315873;32;20075;-60
2023/12/05 02:12:09;;;;;;;1.93;1.83;;;;;;;2.50;100.00;94525.47;4328945;32;19977;-60
2023/12/05 02:14:36;;;;;;;1.47;1.43;;;;;;;2.55;100.00;94533.34;4358627;32;20303;-61
2023/12/05 02:17:24;;;;;;;1.47;1.37;;;;;;;2.63;100.00;94534.66;4316701;32;20285;-60
2023/12/05 02:20:08;;;;;;;1.77;1.40;;;;;;;2.72;100.00;94539.09;4319570;32;20283;-60
2023/12/05 02:23:07;;;;;;;2.23;2.03;;;;;;;2.59;100.00;94538.84;4288719;32;20285;-60
2023/12/05 02:26:02;;;;;;;1.23;1.23;;;;;;;2.61;100.00;94537.53;4308349;32;20298;-61
2023/12/05 02:28:28;;;;;;;0.93;0.93;;;;;;;2.55;100.00;94530.72;4322159;32;20281;-61
2023/12/05 02:30:53;;;;;;;1.27;1.27;;;;;;;2.53;100.00;94519.72;4335318;32;20273;-61
2023/12/05 02:33:20;;;;;;;1.40;1.40;;;;;;;2.54;100.00;94520.50;4327041;32;20184;-61
2023/12/05 02:36:03;;;;;;;1.10;1.10;;;;;;;2.42;100.00;94516.34;4286859;33;20182;-60
2023/12/05 02:39:05;;;;;;;1.17;1.07;;;;;;;2.57;100.00;94520.78;4346825;32;20284;-60
2023/12/05 02:41:32;;;;;;;1.30;1.30;;;;;;;2.68;100.00;94516.34;4296987;32;20342;-60
2023/12/05 02:44:12;;;;;;;1.60;1.50;;;;;;;2.55;100.00;94522.88;4306911;32;20282;-60
2023/12/05 02:46:42;;;;;;;1.27;1.27;;;;;;;2.55;100.00;94528.09;4314291;32;20311;-60
2023/12/05 02:49:10;;;;;;;0.83;0.83;;;;;;;2.74;100.00;94529.13;4312108;32;20368;-60
2023/12/05 02:51:38;;;;;;;2.43;2.23;;;;;;;2.76;100.00;94521.03;4316327;32;20321;-61
2023/12/05 02:54:06;;;;;;;;;;;;;;;2.68;100.00;94524.97;4286668;32;20274;-60
2023/12/05 02:56:34;;;;;;;;;;;;;;;2.72;100.00;94518.13;4346087;32;20047;-60
2023/12/05 02:59:02;;;;;;;;;;;;;;;2.69;100.00;94523.13;4356803;32;19970;-60
2023/12/05 03:01:29;;;;;;;;;;;;;;;2.63;100.00;94529.41;4338012;32;19998;-60
2023/12/05 03:03:56;;;;;;;;;;;;;;;2.54;100.00;94539.62;4328237;32;19988;-61
2023/12/05 03:06:27;;;;;;;;;;;;;;;2.79;100.00;94538.03;4322759;32;20023;-61
2023/12/05 03:08:53;;;;;;;;;;;;;;;2.83;100.00;94552.97;4346419;32;19986;-60
2023/12/05 03:11:19;;;;;;;;;;;;;;;2.53;100.00;94551.13;4329336;32;20028;-60
2023/12/05 03:13:44;;;;;;;;;;;;;;;2.44;100.00;94547.47;4321446;32;20047;-60
2023/12/05 03:16:11;;;;;;;;;;;;;;;2.79;100.00;94551.91;4308921;32;19995;-61
2023/12/05 03:18:38;;;;;;;;;;;;;;;2.61;100.00;94537.53;4314294;32;20122;-60
2023/12/05 03:21:04;;;;;;;;;;;;;;;2.59;100.00;94534.38;4334835;32;19995;-61
2023/12/05 03:23:31;;;;;;;;;;;;;;;2.42;100.00;94526.03;4355213;32;19998;-61
2023/12/05 03:25:57;;;;;;;;;;;;;;;2.47;100.00;94525.25;4338746;32;20058;-61
2023/12/05 03:28:24;;;;;;;;;;;;;;;2.62;100.00;94518.16;4288988;32;20037;-60
2023/12/05 03:30:49;;;;;;;;;;;;;;;2.29;100.00;94518.66;4322330;32;20017;-60
2023/12/05 03:33:15;;;;;;;;;;;;;;;2.10;100.00;94515.00;4325811;32;19982;-61
2023/12/05 03:35:42;;;;;;;;;;;;;;;2.11;100.00;94508.72;4308781;32;19999;-61
2023/12/05 03:38:07;;;;;;;;;;;;;;;2.28;100.00;94501.44;4332935;32;20086;-60
2023/12/05 03:40:34;;;;;;;;;;;;;;;2.09;100.00;94508.97;4301807;32;19983;-61
2023/12/05 03:43:00;;;;;;;;;;;;;;;2.27;100.00;94502.47;4313240;32;20018;-61
2023/12/05 03:45:27;;;;;;;;;;;;;;;2.16;100.00;94503.50;4294454;32;19999;-60
2023/12/05 03:47:53;;;;;;;0.80;0.80;;;;;;;1.94;100.00;94495.88;4311465;32;20255;-60
2023/12/05 03:50:18;;;;;;;1.60;1.07;;;;;;;2.31;100.00;94498.25;4328186;32;20290;-60
2023/12/05 03:52:45;;;;;;;1.03;1.03;;;;;;;2.26;100.00;94504.31;4327435;33;20289;-61
2023/12/05 03:55:14;;;;;;;0.87;0.87;;;;;;;2.14;100.00;94500.34;4328825;32;20276;-61
2023/12/05 03:57:40;;;;;;;0.80;0.80;;;;;;;2.03;100.00;94502.97;4290481;32;20304;-61
2023/12/05 04:00:07;;;;;;;0.50;0.50;;;;;;;2.02;100.00;94509.25;4299855;32;20278;-61
2023/12/05 04:02:34;;;;;;;1.40;1.30;;;;;;;2.04;100.00;94511.59;4321893;32;20184;-61
2023/12/05 04:05:02;;;;;;;0.67;0.67;;;;;;;2.17;100.00;94520.75;4328700;32;20269;-61
2023/12/05 04:07:27;;;;;;;1.70;1.70;;;;;;;2.18;100.00;94522.34;4305860;33;20412;-60
2023/12/05 04:09:55;;;;;;;1.10;1.00;;;;;;;2.36;100.00;94527.06;4339682;32;20296;-61
2023/12/05 04:12:22;;;;;;;0.80;0.80;;;;;;;2.43;100.00;94519.75;4348621;32;20177;-61
2023/12/05 04:14:47;;;;;;;0.70;0.70;;;;;;;2.57;100.00;94517.38;4350817;32;20284;-63
2023/12/05 04:17:14;;;;;;;1.20;1.10;;;;;;;2.52;100.00;94517.38;4310533;32;20286;-60
2023/12/05 04:19:41;;;;;;;1.57;1.47;;;;;;;2.42;100.00;94518.97;4286742;32;20290;-61
2023/12/05 04:22:09;;;;;;;1.23;0.70;;;;;;;2.40;100.00;94515.81;4333023;32;20273;-60
2023/12/05 04:24:38;;;;;;;0.93;0.93;;;;;;;2.52;100.00;94515.53;4326055;32;20288;-60
2023/12/05 04:27:04;;;;;;;1.27;1.23;;;;;;;2.59;100.00;94507.44;4345952;32;20297;-61
2023/12/05 04:29:33;;;;;;;0.87;0.87;;;;;;;2.60;100.00;94504.56;4312829;33;20270;-61
2023/12/05 04:32:01;;;;;;;2.10;1.73;;;;;;;2.64;100.00;94500.38;4326769;32;20169;-61
2023/12/05 04:34:28;;;;;;;0.60;0.60;;;;;;;2.76;100.00;94503.47;4340013;32;20344;-60
2023/12/05 04:36:55;;;;;;;1.13;1.03;;;;;;;2.73;100.00;94511.84;4342107;32;20363;-60
2023/12/05 04:39:21;;;;;;;0.50;0.50;;;;;;;2.60;100.00;94514.22;4311560;32;20400;-63
2023/12/05 04:41:47;;;;;;;0.63;0.63;;;;;;;2.50;100.00;94524.69;4360955;32;20363;-60
2023/12/05 04:44:14;;;;;;;0.63;0.60;;;;;;;2.73;100.00;94521.53;4348029;32;20296;-60
2023/12/05 04:46:41;;;;;;;0.80;0.80;;;;;;;2.49;100.00;94525.78;4351310;32;20259;-60
2023/12/05 04:49:08;;;;;;;0.80;0.80;;;;;;;2.38;100.00;94517.12;4359447;32;20360;-60
2023/12/05 04:51:34;;;;;;;0.43;0.43;;;;;;;2.31;100.00;94527.84;4353017;32;20272;-61
2023/12/05 04:54:01;;;;;;;0.63;0.63;;;;;;;2.03;100.00;94529.13;4343779;32;20260;-60
2023/12/05 04:56:28;;;;;;;0.63;0.63;;;;;;;1.80;100.00;94529.59;4310730;32;20301;-60
2023/12/05 04:58:56;;;;;;;0.47;0.47;;;;;;;2.02;100.00;94517.09;4320220;32;20265;-61
2023/12/05 05:01:23;;;;;;;0.70;0.30;;;;;;;2.17;100.00;94520.75;4317183;32;20285;-61
2023/12/05 05:03:51;;;;;;;0.57;0.57;;;;;;;1.98;100.00;94512.63;4339193;32;20299;-62
2023/12/05 05:06:18;;;;;;;1.10;1.00;;;;;;;2.02;100.00;94511.88;4348710;32;20285;-61
2023/12/05 05:08:45;;;;;;;0.97;0.97;;;;;;;2.23;100.00;94522.34;4320106;33;20372;-61
2023/12/05 05:11:11;;;;;;;0.57;0.57;;;;;;;2.42;100.00;94524.19;4345740;32;20285;-61
2023/12/05 05:13:38;;;;;;;0.20;0.20;;;;;;;2.52;100.00;94533.84;4339557;32;20379;-60
2023/12/05 05:16:08;;;;;;;0.47;0.47;;;;;;;2.33;100.00;94538.03;4333689;32;20206;-61
2023/12/05 05:18:35;;;;;;;0.43;0.43;;;;;;;2.38;100.00;94527.59;4331358;32;20344;-61
2023/12/05 05:21:06;;;;;;;0.57;0.57;;;;;;;2.42;100.00;94526.03;4321149;32;20285;-60
2023/12/05 05:23:33;;;;;;;0.43;0.43;;;;;;;2.41;100.00;94533.09;4312797;32;20286;-61
2023/12/05 05:26:00;;;;;;;1.03;1.03;;;;;;;2.46;100.00;94550.63;4323338;32;20281;-60
2023/12/05 05:28:25;;;;;;;0.30;0.30;;;;;;;2.15;100.00;94543.78;4335938;32;20295;-60
2023/12/05 05:30:56;;;;;;;0.37;0.37;;;;;;;1.86;100.00;94546.09;4306965;32;20277;-60
2023/12/05 05:33:25;;;;;;;0.30;0.30;;;;;;;1.78;100.00;94534.31;4283663;33;20201;-61
2023/12/05 05:35:50;;;;;;;0.13;0.13;;;;;;;1.95;100.00;94544.53;4324581;32;20268;-61
2023/12/05 05:38:20;;;;;;;0.37;0.37;;;;;;;2.16;100.00;94540.91;4359761;32;20273;-60
2023/12/05 05:40:47;;;;;;;0.40;0.40;;;;;;;2.26;100.00;94534.91;4322459;32;20188;-60
2023/12/05 05:43:13;;;;;;;6.97;1.00;;;;;;;2.13;100.00;94535.41;4315090;32;20384;-61
2023/12/05 05:45:38;;;;;;;0.40;0.40;;;;;;;2.11;100.00;94529.66;4280254;32;20390;-60
2023/12/05 05:48:05;;;;;;;1.30;1.20;;;;;;;2.19;100.00;94539.59;4282133;32;20309;-60
2023/12/05 05:50:33;;;;;;;0.10;0.10;;;;;;;2.21;100.00;94540.91;4287439;32;20244;-61
2023/12/05 05:53:00;;;;;;;0.67;0.67;;;;;;;2.30;100.00;94538.56;4327657;32;20341;-60
2023/12/05 05:55:26;;;;;;;0.40;0.40;;;;;;;2.31;100.00;94542.75;4343750;32;20373;-61
2023/12/05 05:57:53;;;;;;;0.67;0.67;;;;;;;2.40;100.00;94543.81;4335900;32;20296;-61
2023/12/05 06:00:19;;;;;;;0.37;0.37;;;;;;;2.18;100.00;94548.50;4298307;32;20301;-63
2023/12/05 06:02:46;;;;;;;0.47;0.47;;;;;;;2.27;100.00;94552.19;4303125;32;20277;-61
2023/12/05 06:05:13;;;;;;;1.07;0.70;;;;;;;2.23;100.00;94556.38;4336512;32;20220;-60
2023/12/05 06:07:39;;;;;;;2.30;0.90;;;;;;;2.15;100.00;94544.56;4327366;32;20360;-61
2023/12/05 06:10:09;;;;;;;0.90;0.90;;;;;;;2.33;100.00;94556.34;4354807;32;20285;-61
2023/12/05 06:12:36;;;;;;;0.40;0.40;;;;;;;2.42;100.00;94555.59;4320926;32;20415;-60
2023/12/05 06:15:06;;;;;;;0.30;0.30;;;;;;;2.41;100.00;94548.00;4306835;32;20352;-61
2023/12/05 06:17:32;;;;;;;0.10;0.10;;;;;;;2.38;100.00;94544.06;4277890;32;20298;-60
2023/12/05 06:20:00;;;;;;;0.50;0.50;;;;;;;2.50;100.00;94551.66;4324354;32;20277;-61
2023/12/05 06:22:27;;;;;;;0.37;0.37;;;;;;;2.58;100.00;94548.53;4331693;32;20278;-61
2023/12/05 06:24:54;;;;;;;0.87;0.87;;;;;;;2.70;100.00;94554.28;4334187;32;20292;-60
2023/12/05 06:27:20;;;;;;;0.50;0.50;;;;;;;2.67;100.00;94557.44;4330302;32;20276;-61
2023/12/05 06:29:50;;;;;;;0.40;0.40;;;;;;;2.67;100.00;94561.88;4321887;32;20372;-61
2023/12/05 06:32:18;;;;;;;0.50;0.50;;;;;;;2.70;100.00;94556.88;4314854;32;20320;-60
2023/12/05 06:34:43;;;;;;;0.40;0.20;;;;;;;2.52;100.00;94557.41;4312423;32;20293;-61
2023/12/05 06:37:09;;;;;;;1.83;1.13;;;;;;;2.57;100.00;94556.63;4312853;32;20300;-60
2023/12/05 06:39:37;;;;;;;0.43;0.43;;;;;;;2.69;100.00;94549.31;4320877;32;20182;-60
2023/12/05 06:42:05;;;;;;;0.57;0.57;;;;;;;2.76;100.00;94547.19;4322299;32;20261;-60
2023/12/05 06:44:32;;;;;;;3.67;0.57;;;;;;;3.00;100.00;94553.47;4295662;32;20292;-61
2023/12/05 06:46:59;;;;;;;0.40;0.40;;;;;;;2.89;100.00;94559.00;4318782;32;20352;-61
2023/12/05 06:49:25;;;;;;;0.30;0.30;;;;;;;2.72;100.00;94552.19;4300268;32;20294;-60
2023/12/05 06:51:57;;;;;;;0.10;0.10;;;;;;;2.93;100.00;94544.31;4306905;32;20293;-61
2023/12/05 06:54:23;;;;;;;0.37;0.37;;;;;;;2.96;100.00;94551.63;4347831;32;20278;-61
2023/12/05 06:56:49;;;;;;;0.33;0.33;;;;;;;2.90;100.00;94557.94;4338600;32;20273;-60
2023/12/05 06:59:15;;;;;;;0.40;0.40;;;;;;;2.75;100.00;94561.34;4343908;32;20174;-61
2023/12/05 07:01:42;;;;;;;0.47;0.40;;;;;;;2.94;100.00;94556.34;4322558;32;20189;-60
2023/12/05 07:04:09;;;;;;;0.27;0.27;;;;;;;2.89;100.00;94553.75;4324777;32;20348;-62
2023/12/05 07:06:38;;;;;;;6.40;1.77;;;;;;;2.84;100.00;94572.88;4345965;32;20273;-66
2023/12/05 07:09:07;;;;;;;1.37;0.83;;;;;;;7.81;100.00;94545.97;4319493;32;20330;-66
2023/12/05 07:11:33;;;;;;;0.97;0.30;;;;;;;9.21;100.00;94563.47;4329546;32;20376;-66
2023/12/05 07:14:03;;;;;;;0.20;0.20;;;;;;;9.35;100.00;94561.56;4330647;32;20365;-66
2023/12/05 07:16:29;;;;;;;0.50;0.50;;;;;;;9.75;89.68;94564.22;4313847;32;20182;-66
2023/12/05 07:18:57;;;;;;;0.90;0.90;;;;;;;10.20;80.36;94572.75;4346992;32;20284;-66
2023/12/05 07:21:24;;;;;;;0.60;0.60;;;;;;;10.41;74.31;94576.38;4327054;32;20296;-65
2023/12/05 07:23:51;;;;;;;0.70;0.57;;;;;;;10.54;71.24;94590.63;4315482;32;20185;-63
2023/12/05 07:26:18;;;;;;;0.57;0.57;;;;;;;8.41;69.37;94596.81;4340098;32;20323;-62
2023/12/05 07:28:45;;;;;;;0.90;0.90;;;;;;;7.32;73.87;94594.91;4295549;33;20309;-62
2023/12/05 07:31:11;;;;;;;0.47;0.47;;;;;;;6.43;78.57;94607.38;4308782;32;20282;-62
2023/12/05 07:33:38;;;;;;;0.57;0.57;;;;;;;6.11;80.76;94611.47;4320873;32;20379;-62
2023/12/05 07:36:07;;;;;;;1.27;1.17;;;;;;;5.49;83.87;94605.28;4316643;32;20211;-61
2023/12/05 07:38:33;;;;;;;0.80;0.80;;;;;;;4.86;88.48;94611.63;4310441;33;20274;-61
2023/12/05 07:40:59;;;;;;;0.60;0.60;;;;;;;4.48;92.02;94606.91;4332358;32;20295;-62
2023/12/05 07:43:25;;;;;;;0.67;0.67;;;;;;;4.77;90.72;94603.56;4315043;32;20270;-62
2023/12/05 07:45:52;;;;;;;0.20;0.20;;;;;;;4.47;92.01;94600.09;4327604;32;20181;-64
2023/12/05 07:48:17;;;;;;;2.00;0.70;;;;;;;4.66;91.62;94591.56;4336696;32;20286;-62
2023/12/05 07:50:44;;;;;;;0.60;0.60;;;;;;;4.73;90.85;94600.72;4313363;32;20273;-62
2023/12/05 07:53:10;;;;;;;0.33;0.33;;;;;;;4.73;90.33;94608.59;4328228;32;20205;-62
2023/12/05 07:55:37;;;;;;;0.63;0.63;;;;;;;4.48;91.97;94614.00;4344707;32;20329;-62
2023/12/05 07:58:03;;;;;;;0.73;0.73;;;;;;;4.29;93.86;94620.94;4327576;32;20373;-61
2023/12/05 08:00:30;;;;;;;0.20;0.20;;;;;;;4.63;91.91;94608.66;4311730;32;20341;-60
2023/12/05 08:02:57;;;;;;;0.20;0.20;;;;;;;4.49;93.57;94611.09;4350270;32;20292;-61
2023/12/05 08:05:25;;;;;;;0.73;0.70;;;;;;;4.37;94.06;94607.22;4358502;32;20330;-61
2023/12/05 08:07:51;;;;;;;0.10;0.10;;;;;;;4.49;93.56;94608.47;4343329;32;20280;-63
2023/12/05 08:10:18;;;;;;;0.87;0.53;;;;;;;4.53;93.08;94597.44;4322037;32;20381;-62
2023/12/05 08:12:48;;;;;;;0.47;0.47;;;;;;;4.40;93.58;94602.22;4347084;32;20314;-61
2023/12/05 08:15:14;;;;;;;0.37;0.37;;;;;;;4.37;94.32;94594.09;4348917;32;20285;-62
2023/12/05 08:17:40;;;;;;;0.07;0.07;;;;;;;4.22;99.59;94600.22;4358134;32;20278;-61
2023/12/05 08:20:58;;;;;;;1.60;0.67;;;;;;;4.35;98.25;94596.25;4313465;32;20286;-61
2023/12/05 08:23:28;;;;;;;0.10;0.10;;;;;;;5.50;100.00;94596.34;4314430;32;20197;-64
2023/12/05 08:25:56;;;;;;;0.10;0.10;;;;;;;10.80;100.00;94593.28;4297069;32;20292;-64
2023/12/05 08:28:21;;;;;;;0.43;0.43;;;;;;;12.23;86.99;94598.88;4300405;32;20278;-61
2023/12/05 08:30:46;;;;;;;0.60;0.60;;;;;;;11.00;61.36;94611.25;4341580;32;20216;-61
2023/12/05 08:33:15;;;;;;;0.47;0.47;;;;;;;8.84;64.65;94609.59;4305767;32;20185;-61
2023/12/05 08:35:42;;;;;;;0.73;0.73;;;;;;;7.68;68.40;94618.06;4300361;32;20313;-61
2023/12/05 08:38:07;;;;;;;1.40;1.40;;;;;;;6.84;72.97;94618.91;4327593;32;20181;-61
2023/12/05 08:40:34;;;;;;;1.00;0.97;;;;;;;6.14;76.06;94621.44;4320575;32;20185;-60
2023/12/05 08:43:03;;;;;;;0.80;0.53;;;;;;;6.09;76.66;94626.75;4337268;32;20268;-60
2023/12/05 08:45:29;;;;;;;0.37;0.37;;;;;;;5.57;80.01;94629.44;4309474;32;20241;-61
2023/12/05 08:47:56;;;;;;;0.55;0.55;;;;;;;5.16;82.05;94630.59;4327625;32;20277;-60
2023/12/05 08:50:22;;;;;;;0.40;0.40;;;;;;;5.20;82.41;94638.69;4334505;32;20291;-61
2023/12/05 08:52:50;;;;;;;1.30;1.00;;;;;;;5.51;80.95;94633.94;4333600;32;20286;-60
2023/12/05 08:55:23;;;;;;;0.60;0.60;;;;;;;5.07;83.08;94639.34;4297995;32;20236;-60
2023/12/05 08:57:51;;;;;;;0.30;0.30;;;;;;;4.89;84.34;94634.75;4298962;32;20344;-62
2023/12/05 09:00:16;;;;;;;0.10;0.10;;;;;;;5.23;83.32;94638.13;4342006;32;20305;-60
2023/12/05 09:02:43;;;;;;;0.50;0.50;;;;;;;5.17;83.36;94634.78;4333759;32;20331;-60
2023/12/05 09:05:13;;;;;;;0.33;0.30;;;;;;;4.83;84.92;94639.25;4328099;32;20236;-60
2023/12/05 09:07:40;;;;;;;0.40;0.40;;;;;;;4.66;86.44;94644.88;4290833;32;20351;-60
2023/12/05 09:10:07;;;;;;;0.57;0.57;;;;;;;4.69;87.06;94641.72;4275677;32;20358;-60
2023/12/05 09:12:34;;;;;;;0.30;0.30;;;;;;;4.76;86.48;94644.81;4294689;32;20460;-60
2023/12/05 09:15:02;;;;;;;0.30;0.30;;;;;;;4.94;86.04;94637.34;4332947;32;20352;-60
2023/12/05 09:17:32;;;;;;;0.50;0.50;;;;;;;4.98;85.02;94648.88;4313897;32;20281;-60
2023/12/05 09:19:57;;;;;;;2.57;0.70;;;;;;;5.26;84.27;94650.75;4309267;32;20325;-60
2023/12/05 09:22:23;;;;;;;0.60;0.57;;;;;;;5.61;82.29;94649.63;4275309;32;20329;-60
2023/12/05 09:24:49;;;;;;;0.70;0.70;;;;;;;5.05;85.09;94650.13;4306833;32;20237;-60
2023/12/05 09:27:14;;;;;;;1.03;1.03;;;;;;;4.99;85.31;94653.84;4327821;32;20355;-61
2023/12/05 09:29:41;;;;;;;6.03;1.10;;;;;;;5.14;84.65;94650.31;4319296;32;20306;-60
2023/12/05 09:39:51;;;;;;;0.97;0.97;;;;;;;5.40;84.48;94637.75;4695817;27;77240;-62
2023/12/05 09:42:19;;;;;;;0.90;0.90;;;;;;;5.40;85.17;94633.25;4363890;32;61092;-62
2023/12/05 09:48:59;;;;;;;0.80;0.80;;;;;;;5.77;83.19;94629.22;4755815;28;20392;-63
2023/12/05 09:51:25;;;;;;;0.60;0.60;;;;;;;5.67;84.20;94637.19;4233146;33;20259;-62
2023/12/05 09:53:53;;;;;;;0.63;0.63;;;;;;;5.78;83.07;94633.41;4225913;33;20286;-62
2023/12/05 09:56:20;;;;;;;1.27;0.63;;;;;;;5.65;83.26;94639.31;4236093;33;20222;-62
2023/12/05 09:58:45;;;;;;;0.60;0.60;;;;;;;5.72;83.43;94634.53;4198351;33;20805;-63
2023/12/05 10:01:15;;;;;;;0.53;0.53;;;;;;;6.21;81.36;94631.62;4182964;33;20298;-63
2023/12/05 10:03:41;;;;;;;0.97;0.70;;;;;;;6.14;81.72;94631.19;4199942;33;20196;-62
2023/12/05 10:06:09;;;;;;;0.80;0.80;;;;;;;6.00;82.51;94633.72;4184376;34;20310;-64
2023/12/05 10:08:35;;;;;;;0.70;0.70;;;;;;;5.79;83.14;94613.94;4196111;33;20318;-62
2023/12/05 10:11:01;;;;;;;0.67;0.67;;;;;;;6.14;82.23;94621.44;4181686;34;20306;-63
2023/12/05 10:13:28;;;;;;;0.23;0.23;;;;;;;6.04;82.43;94613.66;4184832;34;20312;-63
2023/12/05 10:15:55;;;;;;;0.67;0.63;;;;;;;6.04;82.01;94600.47;4181459;34;20288;-63
2023/12/05 10:18:21;;;;;;;1.23;0.53;;;;;;;5.79;83.17;94603.41;4192454;34;20313;-64
2023/12/05 10:20:47;;;;;;;9.33;1.13;;;;;;;5.97;83.07;94600.06;4200273;34;20292;-63
2023/12/05 10:23:12;;;;;;;0.50;0.50;;;;;;;6.04;82.97;94595.22;4189964;33;20318;-63
2023/12/05 10:25:41;;;;;;;0.67;0.67;;;;;;;5.98;83.56;94599.00;4191290;33;20272;-63
2023/12/05 10:28:06;;;;;;;0.30;0.30;;;;;;;5.99;83.88;94605.84;4201321;34;20205;-63
2023/12/05 10:30:38;;;;;;;0.80;0.80;;;;;;;6.13;82.82;94604.06;4184290;34;20382;-64
2023/12/05 10:33:21;;;;;;;0.40;0.40;;;;;;;6.24;82.69;94607.34;4184682;34;20227;-63
2023/12/05 10:35:47;;;;;;;2.23;1.00;;;;;;;6.26;82.83;94607.84;4191210;34;20283;-63
2023/12/05 10:38:17;;;;;;;1.73;0.70;;;;;;;6.47;82.53;94608.34;4190774;34;20372;-65
2023/12/05 10:41:01;;;;;;;0.40;0.40;;;;;;;6.24;81.94;94602.06;4188901;34;20333;-65
2023/12/05 10:43:28;;;;;;;0.27;0.27;;;;;;;6.07;83.65;94596.50;4197443;34;20326;-65
2023/12/05 10:45:54;;;;;;;0.67;0.67;;;;;;;6.13;83.75;94596.16;4187139;34;20302;-65
2023/12/05 10:48:23;;;;;;;0.47;0.47;;;;;;;6.18;83.29;94601.38;4199991;34;20349;-65
2023/12/05 10:50:49;;;;;;;0.40;0.37;;;;;;;6.05;84.89;94607.31;4200939;33;20367;-64
2023/12/05 10:53:15;;;;;;;0.90;0.90;;;;;;;5.98;85.51;94601.62;4188081;34;20373;-63
2023/12/05 10:55:41;;;;;;;0.40;0.40;;;;;;;6.04;84.09;94605.75;4195882;34;20381;-64
2023/12/05 10:58:08;;;;;;;0.93;0.93;;;;;;;6.00;85.35;94612.66;4190396;34;20215;-63
2023/12/05 11:00:34;;;;;;;0.60;0.60;;;;;;;6.04;84.66;94599.69;4140106;34;20198;-61
2023/12/05 11:03:03;;;;;;;0.50;0.50;;;;;;;5.90;85.51;94610.13;4186705;34;20366;-64
2023/12/05 11:05:29;;;;;;;0.70;0.70;;;;;;;5.98;84.79;94608.75;4183183;34;20311;-63
2023/12/05 11:07:56;;;;;;;1.93;0.60;;;;;;;5.73;85.46;94602.69;4182509;34;20300;-66
2023/12/05 11:10:22;;;;;;;0.77;0.77;;;;;;;5.93;84.64;94606.94;4177513;34;20424;-65
2023/12/05 11:12:51;;;;;;;0.43;0.40;;;;;;;5.78;84.78;94607.88;4172112;34;20322;-64
2023/12/05 11:15:24;;;;;;;0.73;0.67;;;;;;;5.85;85.13;94602.25;4177186;34;20221;-64
2023/12/05 11:17:52;;;;;;;0.77;0.77;;;;;;;5.86;84.45;94603.84;4168201;34;20366;-65
2023/12/05 11:20:31;;;;;;;3.60;0.57;;;;;;;6.21;83.82;94600.03;4177821;34;20289;-63
2023/12/05 11:23:25;;;;;;;0.90;0.33;;;;;;;6.07;83.07;94593.88;4187453;34;20352;-64
2023/12/05 11:26:22;;;;;;;0.63;0.63;;;;;;;6.35;83.49;94590.34;4182310;34;20354;-63
2023/12/05 11:29:11;;;;;;;0.30;0.30;;;;;;;6.06;84.08;94595.72;4178510;34;20291;-63
2023/12/05 11:31:51;;;;;;;0.43;0.43;;;;;;;6.12;84.75;94599.88;4188711;34;20408;-63
2023/12/05 11:34:48;;;;;;;0.23;0.23;;;;;;;5.98;85.16;94606.91;4189228;34;20364;-65
2023/12/05 11:37:52;;;;;;;0.83;0.83;;;;;;;6.16;84.20;94608.00;4189990;34;20284;-63
2023/12/05 11:40:17;;;;;;;0.30;0.30;;;;;;;5.95;85.54;94617.97;4181498;34;20306;-63
2023/12/05 11:43:12;;;;;;;0.30;0.30;;;;;;;6.19;85.00;94613.47;4183928;34;20375;-62
2023/12/05 11:45:40;;;;;;;0.87;0.87;;;;;;;6.16;84.58;94608.78;4187698;34;20219;-64
2023/12/05 11:48:06;;;;;;;0.17;0.17;;;;;;;6.22;84.40;94612.13;4182127;34;20377;-64
2023/12/05 11:50:46;;;;;;;30.97;21.30;;;;;;;6.12;85.47;94610.41;4178851;34;20300;-65
2023/12/05 11:53:12;;;;;;;25.90;20.30;;;;;;;6.29;85.45;94622.31;4183080;34;20363;-63
2023/12/05 11:55:45;;;;;;;19.30;14.47;;;;;;;6.39;84.57;94617.69;4170862;34;20296;-63
2023/12/05 11:58:31;;;;;;;5.60;4.90;;;;;;;6.38;85.19;94613.50;4172385;34;20315;-62
2023/12/05 12:01:09;;;;;;;3.40;2.80;;;;;;;6.49;85.31;94604.37;4173896;34;20311;-63
2023/12/05 12:03:54;;;;;;;3.20;2.00;;;;;;;6.43;84.99;94599.47;4178460;34;20302;-63